Time;durP1;ratioP1;P1;durP2;ratioP2;P2;SDS_P1;SDS_P2;PMS_P1;PMS_P2;Temp;Humidity;BMP_temperature;BMP_pressure;BME280_temperature;BME280_humidity;BME280_pressure;Samples;Min_cycle;Max_cycle;Signal;HPM_P1;HPM_P2
2022/05/22 00:01:43;;;;;;;21.83;12.25;;;;;;;12.65;81.11;101856.41;5071485;28;20031;-59
2022/05/22 00:04:08;;;;;;;23.48;12.75;;;;;;;12.62;81.16;101854.19;5071367;28;20107;-59
2022/05/22 00:06:34;;;;;;;21.80;12.43;;;;;;;12.56;81.14;101845.13;5071974;28;20025;-59
2022/05/22 00:09:00;;;;;;;22.27;12.30;;;;;;;12.52;81.70;101841.28;5070363;28;20027;-58
2022/05/22 00:11:25;;;;;;;21.90;12.68;;;;;;;12.47;81.87;101838.53;5071584;28;20021;-60
2022/05/22 00:13:51;;;;;;;22.15;12.15;;;;;;;12.39;81.42;101830.88;5071394;28;20139;-59
2022/05/22 00:19:00;;;;;;;22.50;12.57;;;;;;;12.33;82.13;101819.00;5072058;28;20106;-59
2022/05/22 00:21:25;;;;;;;22.52;13.02;;;;;;;12.38;82.68;101816.19;5071318;28;20441;-59
2022/05/22 00:23:50;;;;;;;22.27;12.80;;;;;;;12.35;82.26;101819.53;5071593;28;20108;-59
2022/05/22 00:26:16;;;;;;;21.90;12.00;;;;;;;12.37;82.39;101822.84;5071712;28;20447;-59
2022/05/22 00:28:41;;;;;;;22.23;12.20;;;;;;;12.33;82.63;101819.84;5071537;28;20442;-59
2022/05/22 00:31:07;;;;;;;24.95;13.20;;;;;;;12.29;82.83;101817.94;5071667;28;20029;-59
2022/05/22 00:33:32;;;;;;;22.27;12.50;;;;;;;12.29;83.40;101817.94;5071539;28;20032;-59
2022/05/22 00:35:57;;;;;;;22.90;12.30;;;;;;;12.19;83.00;101804.19;5071796;28;20032;-59
2022/05/22 00:38:23;;;;;;;23.40;13.32;;;;;;;12.20;83.17;101805.84;5071664;28;20028;-59
2022/05/22 00:40:48;;;;;;;22.05;12.57;;;;;;;12.19;83.36;101804.19;5071498;28;20024;-60
2022/05/22 00:43:25;;;;;;;22.45;13.27;;;;;;;12.04;83.98;101803.25;5071632;28;20025;-59
2022/05/22 00:45:50;;;;;;;23.20;13.07;;;;;;;11.99;84.06;101806.88;5070410;28;20100;-59
2022/05/22 00:48:15;;;;;;;24.63;13.32;;;;;;;11.94;84.54;101795.00;5074970;28;20365;-58
2022/05/22 00:50:40;;;;;;;22.75;12.70;;;;;;;11.88;84.66;101807.22;5075167;28;20124;-59
2022/05/22 00:53:06;;;;;;;24.35;13.48;;;;;;;11.80;85.02;101800.38;5074723;28;20028;-59
2022/05/22 00:55:33;;;;;;;23.08;13.20;;;;;;;11.74;85.62;101809.84;5074950;28;20449;-60
2022/05/22 00:58:05;;;;;;;22.05;13.18;;;;;;;11.66;85.92;101814.91;5075633;28;20441;-59
2022/05/22 01:00:34;;;;;;;23.45;13.50;;;;;;;11.67;86.57;101799.09;5073375;28;20035;-59
2022/05/22 01:05:49;;;;;;;22.27;13.05;;;;;;;11.59;85.90;101785.84;5075049;28;20133;-59
2022/05/22 01:08:14;;;;;;;24.13;14.05;;;;;;;11.58;86.42;101785.03;5075111;28;20075;-60
2022/05/22 01:10:47;;;;;;;21.33;13.68;;;;;;;11.42;86.32;101778.78;5074764;28;20387;-59
2022/05/22 01:13:19;;;;;;;21.65;13.15;;;;;;;11.49;86.48;101798.69;5074606;28;20485;-59
2022/05/22 01:15:45;;;;;;;23.23;13.48;;;;;;;11.46;86.83;101793.72;5074839;28;20468;-59
2022/05/22 01:18:10;;;;;;;23.90;13.68;;;;;;;11.40;87.13;101789.31;5074815;28;20082;-59
2022/05/22 01:20:36;;;;;;;21.75;14.07;;;;;;;11.34;87.09;101805.16;5074291;28;20024;-59
2022/05/22 01:23:01;;;;;;;21.80;13.27;;;;;;;11.30;87.53;101808.78;5074715;28;20025;-59
2022/05/22 01:25:27;;;;;;;24.98;13.70;;;;;;;11.28;87.36;101797.19;5074757;28;20024;-59
2022/05/22 01:27:53;;;;;;;24.70;13.65;;;;;;;11.27;88.02;101801.06;5074765;28;20050;-59
2022/05/22 01:30:26;;;;;;;21.55;13.85;;;;;;;11.24;88.04;101802.47;5074761;28;20040;-60
2022/05/22 01:32:51;;;;;;;22.67;13.75;;;;;;;11.24;87.68;101795.00;5074728;28;20040;-59
2022/05/22 01:35:24;;;;;;;24.02;13.73;;;;;;;11.18;87.85;101771.22;5074101;28;20051;-59
2022/05/22 01:37:51;;;;;;;22.48;13.57;;;;;;;11.20;87.84;101776.47;5072444;28;20036;-59
2022/05/22 01:40:18;;;;;;;22.73;13.18;;;;;;;11.16;88.20;101783.69;5073798;28;20020;-59
2022/05/22 01:42:44;;;;;;;23.20;14.25;;;;;;;11.12;88.28;101779.84;5073992;28;20025;-59
2022/05/22 01:45:12;;;;;;;23.40;13.73;;;;;;;11.04;88.77;101776.56;5073740;28;20032;-59
2022/05/22 01:47:38;;;;;;;25.15;14.48;;;;;;;10.97;88.50;101769.69;5073681;28;20035;-58
2022/05/22 01:50:06;;;;;;;21.88;13.95;;;;;;;10.90;88.73;101759.78;5073286;28;20530;-59
2022/05/22 01:52:31;;;;;;;23.70;14.27;;;;;;;10.91;89.08;101764.16;5073501;28;20024;-59
2022/05/22 01:54:56;;;;;;;24.83;14.77;;;;;;;10.89;89.24;101760.88;5073271;28;20074;-59
2022/05/22 01:57:22;;;;;;;23.20;14.35;;;;;;;10.84;89.07;101766.44;5072453;28;20044;-59
2022/05/22 01:59:47;;;;;;;24.48;14.80;;;;;;;10.83;89.64;101763.97;5072915;28;20400;-59
2022/05/22 02:02:13;;;;;;;23.95;15.40;;;;;;;10.76;89.62;101764.25;5073032;28;20487;-59
2022/05/22 02:04:38;;;;;;;23.83;14.48;;;;;;;10.77;90.15;101769.50;5073000;28;20111;-60
2022/05/22 02:09:48;;;;;;;23.92;14.93;;;;;;;10.71;90.09;101761.53;5073793;28;20059;-59
2022/05/22 02:12:14;;;;;;;24.73;14.50;;;;;;;10.61;90.27;101774.31;5072041;28;20485;-59
2022/05/22 02:14:39;;;;;;;27.20;14.82;;;;;;;10.59;90.70;101750.78;5073552;28;20399;-59
2022/05/22 02:17:05;;;;;;;23.40;14.68;;;;;;;10.57;90.95;101753.03;5073162;28;20385;-59
2022/05/22 02:19:30;;;;;;;26.38;15.90;;;;;;;10.59;91.37;101750.78;5072966;28;20423;-59
2022/05/22 02:21:55;;;;;;;24.92;15.20;;;;;;;10.55;90.77;101742.22;5073210;28;20056;-59
2022/05/22 02:24:21;;;;;;;23.98;14.85;;;;;;;10.56;90.85;101743.06;5073232;28;20024;-60
2022/05/22 02:26:46;;;;;;;24.63;14.77;;;;;;;10.45;91.20;101739.50;5073366;28;20031;-60
2022/05/22 02:29:11;;;;;;;25.88;15.52;;;;;;;10.42;91.60;101740.09;5073023;28;20052;-60
2022/05/22 02:31:36;;;;;;;26.77;15.48;;;;;;;10.30;91.30;101734.81;5073457;28;20461;-60
2022/05/22 02:34:02;;;;;;;25.33;15.00;;;;;;;10.30;91.95;101729.28;5073636;28;20029;-59
2022/05/22 02:36:28;;;;;;;26.13;15.30;;;;;;;10.27;91.89;101727.13;5074082;28;20384;-59
2022/05/22 02:38:53;;;;;;;25.38;15.43;;;;;;;10.18;92.24;101717.75;5073516;28;20420;-59
2022/05/22 02:41:20;;;;;;;24.73;15.45;;;;;;;10.19;92.89;101725.75;5073565;28;20027;-59
2022/05/22 02:43:46;;;;;;;23.67;14.93;;;;;;;10.18;92.44;101726.03;5073805;28;20398;-59
2022/05/22 02:46:14;;;;;;;24.25;15.48;;;;;;;10.09;92.54;101717.47;5073512;28;20032;-59
2022/05/22 02:48:41;;;;;;;25.02;16.13;;;;;;;10.03;93.59;101716.66;5072869;28;20043;-59
2022/05/22 02:51:11;;;;;;;24.65;15.93;;;;;;;9.88;93.87;101695.44;5073049;28;20495;-58
2022/05/22 02:53:36;;;;;;;24.13;15.52;;;;;;;9.86;93.71;101708.72;5073061;28;20039;-59
2022/05/22 02:56:07;;;;;;;24.45;15.50;;;;;;;9.85;94.55;101715.34;5073065;28;20140;-59
2022/05/22 02:58:32;;;;;;;25.60;16.60;;;;;;;9.78;94.53;101715.63;5072718;28;20032;-60
2022/05/22 03:00:57;;;;;;;24.90;16.23;;;;;;;9.73;95.47;101725.88;5072837;28;20025;-59
2022/05/22 03:03:22;;;;;;;25.05;16.42;;;;;;;9.74;95.29;101735.81;5072965;28;20116;-59
2022/05/22 03:08:36;;;;;;;25.42;16.52;;;;;;;9.66;95.80;101727.00;5071220;28;20032;-60
2022/05/22 03:11:06;;;;;;;26.77;15.77;;;;;;;9.68;95.53;101735.00;5073168;28;20024;-59
2022/05/22 03:13:32;;;;;;;25.85;16.80;;;;;;;9.67;96.21;101725.88;5072849;28;20113;-59
2022/05/22 03:15:57;;;;;;;27.10;16.40;;;;;;;9.67;96.11;101725.88;5072842;28;20123;-59
2022/05/22 03:18:23;;;;;;;26.63;16.05;;;;;;;9.72;96.28;101713.16;5072493;28;20145;-59
2022/05/22 03:20:48;;;;;;;26.25;16.02;;;;;;;9.69;96.16;101709.03;5072245;28;20167;-59
2022/05/22 03:23:14;;;;;;;27.35;16.45;;;;;;;9.72;96.12;101710.41;5072545;28;20028;-60
2022/05/22 03:25:40;;;;;;;25.02;15.90;;;;;;;9.66;95.94;101704.03;5072187;28;20033;-59
2022/05/22 03:28:06;;;;;;;25.80;16.17;;;;;;;9.73;95.94;101709.28;5072141;28;20024;-59
2022/05/22 03:30:31;;;;;;;25.92;16.00;;;;;;;9.75;96.29;101698.78;5072970;28;20008;-60
2022/05/22 03:32:57;;;;;;;23.95;16.05;;;;;;;9.73;95.71;101698.22;5072544;28;20029;-60
2022/05/22 03:35:22;;;;;;;23.83;16.30;;;;;;;9.75;95.69;101699.59;5072653;28;20051;-60
2022/05/22 03:37:48;;;;;;;23.10;16.25;;;;;;;9.66;95.54;101706.81;5072293;28;20028;-60
2022/05/22 03:40:14;;;;;;;26.25;16.90;;;;;;;9.61;95.56;101712.34;5072347;28;20024;-60
2022/05/22 03:42:40;;;;;;;26.45;15.85;;;;;;;9.55;96.13;101699.63;5072492;28;20029;-60
2022/05/22 03:45:06;;;;;;;25.50;16.35;;;;;;;9.52;95.67;101698.25;5072161;28;20031;-60
2022/05/22 03:47:31;;;;;;;25.30;16.08;;;;;;;9.48;96.22;101698.00;5071897;28;20543;-61
2022/05/22 03:49:57;;;;;;;24.90;16.75;;;;;;;9.48;96.23;101694.41;5072230;28;20103;-60
2022/05/22 03:52:23;;;;;;;27.00;16.77;;;;;;;9.51;96.45;101689.16;5072332;28;20431;-59
2022/05/22 03:54:48;;;;;;;26.75;16.55;;;;;;;9.51;96.29;101682.78;5072109;28;20035;-59
2022/05/22 03:57:13;;;;;;;27.80;16.25;;;;;;;9.54;96.33;101675.91;5072029;28;20024;-59
2022/05/22 03:59:40;;;;;;;24.33;15.57;;;;;;;9.58;96.11;101686.13;5071882;28;20033;-59
2022/05/22 04:02:06;;;;;;;25.42;15.75;;;;;;;9.58;96.42;101688.88;5072299;28;20520;-58
2022/05/22 04:04:32;;;;;;;25.55;16.40;;;;;;;9.57;96.23;101701.03;5072367;28;20112;-58
2022/05/22 04:06:57;;;;;;;25.00;15.77;;;;;;;9.61;96.55;101704.06;5072603;28;20103;-58
2022/05/22 04:09:26;;;;;;;24.90;15.38;;;;;;;9.63;96.63;101693.56;5072184;28;20025;-58
2022/05/22 04:11:51;;;;;;;25.67;15.95;;;;;;;9.71;96.52;101700.44;5072262;28;20017;-58
2022/05/22 04:14:19;;;;;;;26.13;16.00;;;;;;;9.74;96.37;101700.72;5072300;28;20082;-58
2022/05/22 04:16:44;;;;;;;24.15;15.27;;;;;;;9.77;95.75;101691.06;5071712;28;20035;-59
2022/05/22 04:19:10;;;;;;;24.52;15.32;;;;;;;9.81;95.69;101687.44;5071624;28;20025;-59
2022/05/22 04:21:35;;;;;;;25.15;15.80;;;;;;;9.80;95.46;101669.22;5072462;28;20028;-59
2022/05/22 04:26:44;;;;;;;24.30;15.60;;;;;;;10.02;95.73;101687.38;5075347;28;20171;-59
2022/05/22 04:29:09;;;;;;;24.80;15.82;;;;;;;10.10;94.80;101672.97;5073553;28;20182;-59
2022/05/22 04:31:35;;;;;;;28.30;15.75;;;;;;;10.20;94.94;101676.81;5075596;28;20044;-59
2022/05/22 04:34:00;;;;;;;23.67;16.05;;;;;;;10.25;94.10;101676.78;5074946;28;20036;-59
2022/05/22 04:36:25;;;;;;;27.80;17.05;;;;;;;10.31;94.24;101678.41;5075383;28;20376;-59
2022/05/22 04:38:50;;;;;;;26.65;16.67;;;;;;;10.33;93.94;101676.19;5075573;28;20032;-59
2022/05/22 04:41:17;;;;;;;26.52;16.80;;;;;;;10.33;93.62;101673.41;5075230;28;20039;-59
2022/05/22 04:43:42;;;;;;;26.13;16.90;;;;;;;10.36;94.22;101683.94;5075103;28;20040;-58
2022/05/22 04:46:08;;;;;;;26.27;15.70;;;;;;;10.38;93.65;101673.44;5075293;28;20025;-59
2022/05/22 04:48:33;;;;;;;24.73;17.02;;;;;;;10.43;93.43;101686.41;5075169;28;20112;-59
2022/05/22 04:50:58;;;;;;;26.20;16.45;;;;;;;10.43;93.27;101689.19;5074706;28;20056;-59
2022/05/22 04:53:27;;;;;;;27.10;16.88;;;;;;;10.45;93.24;101684.16;5074737;28;20029;-59
2022/05/22 04:55:52;;;;;;;26.60;16.40;;;;;;;10.50;93.70;101673.09;5074453;28;20048;-59
2022/05/22 04:58:19;;;;;;;26.45;17.30;;;;;;;10.52;93.34;101686.63;5074621;28;20059;-59
2022/05/22 05:00:45;;;;;;;27.17;16.15;;;;;;;10.61;93.06;101679.38;5074625;28;20081;-59
2022/05/22 05:03:11;;;;;;;24.40;15.98;;;;;;;10.71;92.72;101686.81;5074482;28;20029;-59
2022/05/22 05:05:36;;;;;;;25.33;16.45;;;;;;;10.80;92.41;101678.72;5074518;28;20372;-59
2022/05/22 05:08:01;;;;;;;27.63;16.98;;;;;;;10.83;91.86;101673.44;5074431;28;20017;-59
2022/05/22 05:10:27;;;;;;;29.40;17.58;;;;;;;10.82;91.96;101666.22;5074003;28;20028;-59
2022/05/22 05:12:52;;;;;;;25.63;16.67;;;;;;;10.97;91.41;101670.84;5074048;28;20029;-60
2022/05/22 05:15:20;;;;;;;27.13;17.63;;;;;;;10.93;91.33;101659.50;5073813;28;20024;-60
2022/05/22 05:17:46;;;;;;;25.80;16.77;;;;;;;11.09;91.56;101667.72;5073699;28;20040;-60
2022/05/22 05:20:14;;;;;;;26.13;16.73;;;;;;;11.09;91.02;101662.19;5073902;28;20020;-59
2022/05/22 05:22:40;;;;;;;24.38;16.67;;;;;;;11.15;90.52;101679.56;5073954;28;20036;-59
2022/05/22 05:25:06;;;;;;;27.00;17.20;;;;;;;11.20;90.76;101674.78;5074624;28;20043;-59
2022/05/22 05:27:32;;;;;;;28.02;16.67;;;;;;;11.26;90.39;101666.47;5074191;28;20439;-59
2022/05/22 05:29:57;;;;;;;26.75;17.50;;;;;;;11.35;89.48;101673.84;5074200;28;20091;-59
2022/05/22 05:32:23;;;;;;;26.30;17.02;;;;;;;11.47;90.10;101669.84;5074200;28;20107;-59
2022/05/22 05:34:56;;;;;;;24.77;16.80;;;;;;;11.50;89.23;101680.38;5072843;28;20405;-59
2022/05/22 05:37:21;;;;;;;27.15;17.08;;;;;;;11.48;89.08;101675.09;5074257;28;20056;-60
2022/05/22 05:39:46;;;;;;;25.40;17.08;;;;;;;11.53;89.57;101682.53;5073235;28;20107;-59
2022/05/22 05:42:12;;;;;;;24.75;16.80;;;;;;;11.59;88.93;101686.94;5074338;28;20082;-60
2022/05/22 05:44:38;;;;;;;27.40;16.73;;;;;;;11.63;88.87;101687.97;5074514;28;20032;-60
2022/05/22 05:47:03;;;;;;;25.48;16.20;;;;;;;11.61;88.35;101670.00;5074105;28;20503;-59
2022/05/22 05:49:29;;;;;;;26.98;16.50;;;;;;;11.64;88.93;101675.78;5073056;28;20427;-59
2022/05/22 05:51:54;;;;;;;26.77;17.65;;;;;;;11.73;88.63;101677.91;5073931;28;20060;-59
2022/05/22 05:54:19;;;;;;;28.70;17.02;;;;;;;11.79;89.19;101673.97;5074388;28;20175;-60
2022/05/22 05:56:44;;;;;;;25.65;17.48;;;;;;;11.84;88.54;101665.59;5074013;28;20525;-61
2022/05/22 05:59:10;;;;;;;24.80;16.92;;;;;;;11.93;88.69;101674.91;5073938;28;20025;-59
2022/05/22 06:01:35;;;;;;;25.23;16.02;;;;;;;12.01;87.69;101676.25;5073467;28;20035;-59
2022/05/22 06:04:01;;;;;;;26.75;16.85;;;;;;;12.12;87.66;101675.00;5073467;28;20028;-58
2022/05/22 06:06:28;;;;;;;27.35;17.20;;;;;;;12.20;87.77;101687.38;5073736;28;20021;-59
2022/05/22 06:08:53;;;;;;;25.83;17.17;;;;;;;12.24;87.06;101690.38;5073948;28;20130;-59
2022/05/22 06:11:19;;;;;;;26.30;17.77;;;;;;;12.30;86.57;101689.22;5073448;28;20415;-60
2022/05/22 06:13:44;;;;;;;25.80;17.67;;;;;;;12.38;86.78;101688.53;5072371;28;20091;-59
2022/05/22 06:16:10;;;;;;;25.73;16.98;;;;;;;12.49;86.32;101678.13;5073546;28;20035;-59
2022/05/22 06:18:36;;;;;;;27.73;17.35;;;;;;;12.56;85.71;101680.53;5073301;28;20025;-59
2022/05/22 06:21:13;;;;;;;26.73;17.80;;;;;;;12.59;85.37;101666.06;5073856;28;20112;-60
2022/05/22 06:23:38;;;;;;;27.35;17.85;;;;;;;12.77;86.28;101683.81;5073925;28;20020;-57
2022/05/22 06:26:08;;;;;;;28.00;17.50;;;;;;;12.92;85.13;101683.59;5073322;28;20423;-58
2022/05/22 06:28:34;;;;;;;25.70;16.77;;;;;;;13.06;85.02;101671.72;5073137;28;20121;-58
2022/05/22 06:30:59;;;;;;;26.70;17.75;;;;;;;13.21;84.26;101678.97;5073243;28;20475;-58
2022/05/22 06:33:25;;;;;;;26.98;17.88;;;;;;;13.29;82.90;101681.06;5073260;28;20025;-59
2022/05/22 06:35:50;;;;;;;25.70;16.60;;;;;;;13.35;81.32;101682.63;5073548;28;20021;-58
2022/05/22 06:41:07;;;;;;;27.52;18.17;;;;;;;13.51;81.88;101682.38;5073733;28;20044;-59
2022/05/22 06:43:33;;;;;;;28.30;18.48;;;;;;;13.63;81.21;101688.28;5073181;28;20024;-60
2022/05/22 06:45:58;;;;;;;24.75;16.63;;;;;;;13.75;81.59;101686.94;5073557;28;20030;-58
2022/05/22 06:48:24;;;;;;;26.77;17.05;;;;;;;13.83;79.85;101680.69;5073566;28;20111;-58
2022/05/22 06:50:50;;;;;;;25.92;17.38;;;;;;;13.97;80.68;101684.28;5072231;28;20349;-58
2022/05/22 06:53:15;;;;;;;25.48;16.48;;;;;;;14.10;78.81;101690.16;5073795;28;20114;-58
2022/05/22 06:55:40;;;;;;;26.15;16.98;;;;;;;14.21;78.34;101694.41;5073511;28;20021;-58
2022/05/22 06:58:06;;;;;;;28.27;17.80;;;;;;;14.33;77.96;101694.66;5073395;28;20440;-58
2022/05/22 07:00:31;;;;;;;27.15;16.80;;;;;;;14.49;77.58;101684.03;5072914;28;20078;-58
2022/05/22 07:02:57;;;;;;;26.27;16.63;;;;;;;14.63;76.10;101694.31;5072878;28;20029;-58
2022/05/22 07:05:22;;;;;;;23.52;15.93;;;;;;;14.89;75.92;101683.41;5072558;28;20028;-58
2022/05/22 07:07:48;;;;;;;24.65;15.95;;;;;;;15.13;74.42;101690.66;5072921;28;20016;-58
2022/05/22 07:10:14;;;;;;;27.00;17.25;;;;;;;15.38;74.71;101682.78;5072722;28;20119;-58
2022/05/22 07:12:39;;;;;;;24.80;16.02;;;;;;;15.58;71.96;101679.47;5072148;28;20032;-59
2022/05/22 07:15:06;;;;;;;27.95;16.50;;;;;;;15.72;70.33;101682.16;5072401;28;20043;-58
2022/05/22 07:17:31;;;;;;;26.15;16.55;;;;;;;15.85;70.53;101691.59;5071926;28;20029;-59
2022/05/22 07:19:57;;;;;;;28.98;16.75;;;;;;;15.88;70.62;101687.34;5072764;28;20043;-59
2022/05/22 07:22:23;;;;;;;26.80;16.85;;;;;;;15.78;69.12;101682.84;5072082;28;20443;-58
2022/05/22 07:24:49;;;;;;;26.27;16.20;;;;;;;15.77;69.07;101672.81;5071826;28;20027;-59
2022/05/22 07:27:15;;;;;;;24.00;15.43;;;;;;;15.87;69.08;101680.94;5071799;28;20036;-59
2022/05/22 07:29:41;;;;;;;25.48;15.93;;;;;;;15.98;69.04;101684.25;5072319;28;20052;-61
2022/05/22 07:32:07;;;;;;;24.75;15.75;;;;;;;16.01;68.75;101677.22;5072183;28;20021;-59
2022/05/22 07:34:33;;;;;;;24.70;16.20;;;;;;;16.08;69.25;101673.94;5072934;28;20361;-58
2022/05/22 07:37:04;;;;;;;24.92;15.35;;;;;;;16.14;69.83;101655.91;5073273;28;20033;-59
2022/05/22 07:39:30;;;;;;;24.80;15.75;;;;;;;16.29;69.13;101663.81;5072371;28;20590;-58
2022/05/22 07:41:56;;;;;;;25.90;15.45;;;;;;;16.39;68.67;101665.47;5072468;28;20119;-59
2022/05/22 07:44:21;;;;;;;27.00;17.42;;;;;;;16.33;68.19;101667.63;5073086;28;20024;-59
2022/05/22 07:46:47;;;;;;;26.17;18.23;;;;;;;16.32;69.43;101667.94;5072713;28;20017;-60
2022/05/22 07:50:16;;;;;;;27.63;17.05;;;;;;;16.31;67.72;101667.13;5072459;28;20069;-58
2022/05/22 07:52:04;;;;;;;25.10;15.48;;;;;;;16.34;67.50;101663.66;5072453;28;20472;-59
2022/05/22 07:54:37;;;;;;;26.20;15.90;;;;;;;16.42;65.77;101658.44;5072602;28;20024;-59
2022/05/22 07:57:03;;;;;;;24.52;15.68;;;;;;;16.40;65.71;101660.72;5075181;28;20417;-58
2022/05/22 07:59:29;;;;;;;25.52;15.40;;;;;;;16.54;67.02;101658.59;5075816;28;20099;-58
2022/05/22 08:01:55;;;;;;;24.30;14.43;;;;;;;16.67;65.24;101648.44;5069918;28;20437;-59
2022/05/22 08:04:21;;;;;;;23.73;13.07;;;;;;;16.80;63.56;101641.03;5054486;28;20059;-58
2022/05/22 08:06:46;;;;;;;24.92;12.68;;;;;;;16.86;61.77;101655.66;5054505;28;20017;-59
2022/05/22 08:09:11;;;;;;;25.42;15.10;;;;;;;16.83;64.42;101648.75;5054473;28;20091;-59
2022/05/22 08:11:37;;;;;;;25.15;14.18;;;;;;;16.81;63.24;101645.47;5053107;28;20029;-58
2022/05/22 08:14:02;;;;;;;22.85;13.45;;;;;;;16.74;62.19;101636.75;5052771;28;20032;-59
2022/05/22 08:16:27;;;;;;;24.02;13.75;;;;;;;16.62;60.57;101638.25;5054257;28;20082;-59
2022/05/22 08:18:53;;;;;;;22.23;12.52;;;;;;;16.67;60.89;101645.66;5054489;28;20037;-59
2022/05/22 08:21:19;;;;;;;21.75;12.63;;;;;;;16.67;60.26;101631.69;5053123;28;20043;-60
2022/05/22 08:23:45;;;;;;;23.08;12.82;;;;;;;16.79;61.90;101628.22;5053969;28;20151;-60
2022/05/22 08:26:10;;;;;;;21.92;13.27;;;;;;;16.83;61.15;101624.44;5054503;28;20406;-59
2022/05/22 08:28:35;;;;;;;23.02;12.77;;;;;;;16.80;58.66;101613.91;5054019;28;20156;-59
2022/05/22 08:31:00;;;;;;;22.40;13.30;;;;;;;16.87;60.20;101615.38;5053939;28;20114;-58
2022/05/22 08:33:26;;;;;;;24.98;14.18;;;;;;;16.83;60.01;101610.47;5053714;28;20112;-59
2022/05/22 08:35:52;;;;;;;23.85;13.38;;;;;;;16.87;60.52;101606.97;5054180;28;20090;-59
2022/05/22 08:38:17;;;;;;;22.88;12.95;;;;;;;17.06;60.23;101601.09;5054301;28;20113;-59
2022/05/22 08:40:52;;;;;;;24.15;13.43;;;;;;;17.11;60.27;101587.75;5053624;28;20478;-59
2022/05/22 08:43:56;;;;;;;20.98;12.05;;;;;;;17.33;59.01;101597.06;5054406;28;20063;-59
2022/05/22 08:46:35;;;;;;;22.08;11.73;;;;;;;17.31;56.39;101594.59;5048705;28;20131;-59
2022/05/22 08:49:10;;;;;;;20.92;11.32;;;;;;;17.44;56.65;101581.53;5054017;28;20033;-58
2022/05/22 08:51:49;;;;;;;24.52;12.77;;;;;;;17.49;56.19;101583.31;5054011;28;20498;-58
2022/05/22 08:54:24;;;;;;;22.75;12.02;;;;;;;17.48;57.92;101564.91;5053935;28;20499;-59
2022/05/22 08:59:39;;;;;;;22.20;12.63;;;;;;;17.83;55.66;101567.53;5054059;28;20578;-57
2022/05/22 09:02:16;;;;;;;25.80;13.38;;;;;;;17.89;56.27;101563.38;5053971;28;20045;-59
2022/05/22 09:04:51;;;;;;;23.20;13.43;;;;;;;18.00;57.08;101566.63;5053957;28;20017;-59
2022/05/22 09:07:50;;;;;;;21.27;11.70;;;;;;;18.18;56.98;101560.91;5053650;28;20079;-60
2022/05/22 09:10:20;;;;;;;22.52;12.38;;;;;;;18.39;54.74;101560.91;5054204;28;20024;-59
2022/05/22 09:12:54;;;;;;;22.67;12.55;;;;;;;18.59;55.45;101553.63;5053481;28;20025;-59
2022/05/22 09:15:27;;;;;;;21.65;12.70;;;;;;;18.58;54.27;101554.00;5053028;28;20029;-59
2022/05/22 09:18:00;;;;;;;22.33;12.43;;;;;;;18.54;53.84;101551.88;5053155;28;20037;-58
2022/05/22 09:20:28;;;;;;;22.25;13.10;;;;;;;18.65;53.22;101554.25;5053334;28;20103;-60
2022/05/22 09:23:15;;;;;;;23.35;12.82;;;;;;;18.73;54.69;101546.94;5053174;28;20040;-59
2022/05/22 09:25:51;;;;;;;22.42;12.00;;;;;;;18.90;52.79;101549.53;5053303;28;20060;-58
2022/05/22 09:28:30;;;;;;;22.58;12.20;;;;;;;18.94;53.14;101552.50;5052434;28;20572;-59
2022/05/22 09:31:07;;;;;;;25.00;12.10;;;;;;;19.03;52.02;101544.81;5052494;28;20032;-58
2022/05/22 09:34:04;;;;;;;22.77;12.02;;;;;;;19.21;53.26;101547.41;5052583;28;20111;-59
2022/05/22 09:36:52;;;;;;;22.25;12.57;;;;;;;19.30;52.62;101536.91;5050552;28;20048;-59
2022/05/22 09:39:22;;;;;;;21.58;12.05;;;;;;;19.53;51.35;101536.44;5050654;28;20079;-58
2022/05/22 09:42:35;;;;;;;21.15;12.02;;;;;;;19.80;52.76;101548.94;5052664;28;20033;-59
2022/05/22 09:45:27;;;;;;;23.00;12.65;;;;;;;19.73;50.62;101509.41;5042703;28;20506;-58
2022/05/22 09:48:02;;;;;;;22.65;12.70;;;;;;;19.95;50.77;101531.41;5052904;28;20037;-60
2022/05/22 09:50:33;;;;;;;23.08;12.30;;;;;;;20.16;49.00;101527.63;5052475;28;20045;-60
2022/05/22 09:53:07;;;;;;;21.58;11.88;;;;;;;20.38;49.40;101531.88;5052146;28;20020;-62
2022/05/22 09:55:51;;;;;;;23.42;12.13;;;;;;;20.52;48.22;101522.19;5057689;28;20020;-61
2022/05/22 09:58:38;;;;;;;21.48;11.82;;;;;;;20.57;48.32;101519.94;5070869;28;20032;-59
2022/05/22 10:01:07;;;;;;;22.67;12.60;;;;;;;20.41;45.34;101525.50;5072983;28;20039;-59
2022/05/22 10:04:04;;;;;;;24.02;14.75;;;;;;;20.40;46.45;101526.69;5072927;28;20029;-58
2022/05/22 10:06:38;;;;;;;21.70;12.18;;;;;;;20.52;47.34;101523.03;5072902;28;20036;-59
2022/05/22 10:09:26;;;;;;;22.58;12.35;;;;;;;20.51;48.62;101512.97;5072309;28;20468;-59
2022/05/22 10:12:01;;;;;;;21.50;11.93;;;;;;;20.53;44.64;101518.22;5072599;28;20035;-58
2022/05/22 10:14:44;;;;;;;20.50;11.30;;;;;;;20.63;46.85;101523.31;5072511;28;20047;-58
2022/05/22 10:17:23;;;;;;;21.70;12.55;;;;;;;20.61;48.27;101524.84;5072113;28;20029;-58
2022/05/22 10:20:07;;;;;;;21.73;11.80;;;;;;;20.58;47.61;101515.97;5071225;28;20036;-60
2022/05/22 10:23:03;;;;;;;21.60;12.23;;;;;;;20.77;48.18;101511.66;5069235;28;20123;-60
2022/05/22 10:25:50;;;;;;;21.92;12.40;;;;;;;20.94;46.49;101512.50;5071795;28;20036;-58
2022/05/22 10:28:22;;;;;;;22.50;12.65;;;;;;;21.03;45.43;101504.72;5071816;28;20162;-58
2022/05/22 10:30:57;;;;;;;21.83;12.27;;;;;;;21.02;45.46;101503.91;5072182;28;20040;-59
2022/05/22 10:33:27;;;;;;;22.45;11.50;;;;;;;21.01;45.76;101505.06;5072500;28;20102;-59
2022/05/22 10:35:58;;;;;;;21.70;11.48;;;;;;;21.01;44.68;101501.47;5072274;28;20029;-58
2022/05/22 10:38:35;;;;;;;24.63;12.93;;;;;;;21.07;46.47;101479.47;5072029;28;20059;-57
2022/05/22 10:44:04;;;;;;;23.25;13.52;;;;;;;21.09;45.01;101492.03;5072586;28;20059;-58
2022/05/22 10:46:30;;;;;;;21.90;12.85;;;;;;;21.16;46.14;101495.00;5070170;28;20136;-59
2022/05/22 10:48:55;;;;;;;23.92;13.32;;;;;;;21.22;46.01;101487.13;5071406;28;20131;-59
2022/05/22 10:51:27;;;;;;;22.27;13.38;;;;;;;21.14;43.86;101482.50;5071264;28;20029;-60
2022/05/22 10:53:56;;;;;;;22.30;12.88;;;;;;;21.16;45.93;101464.06;5071353;28;20051;-60
2022/05/22 10:56:25;;;;;;;24.33;13.15;;;;;;;21.13;43.98;101461.16;5054260;28;20021;-58
2022/05/22 10:58:58;;;;;;;22.55;12.70;;;;;;;21.20;43.76;101464.16;5072240;28;20036;-58
2022/05/22 11:01:28;;;;;;;;;;;;;;;21.48;46.37;101460.38;5072478;28;20452;-58
2022/05/22 11:04:08;;;;;;;24.55;12.95;;;;;;;21.47;45.36;101459.56;5072194;28;19912;-58
2022/05/22 11:06:58;;;;;;;21.05;13.05;;;;;;;21.29;43.34;101458.34;5072464;28;20491;-59
2022/05/22 11:09:49;;;;;;;23.75;14.10;;;;;;;21.25;45.29;101447.00;5072686;28;20035;-59
2022/05/22 11:12:23;;;;;;;22.77;13.50;;;;;;;21.37;44.52;101433.97;5072683;28;20040;-59
2022/05/22 11:14:48;;;;;;;22.67;12.70;;;;;;;21.37;44.51;101448.88;5070903;28;20039;-59
2022/05/22 11:17:17;;;;;;;21.77;12.40;;;;;;;21.25;45.03;101449.81;5072725;28;20021;-59
2022/05/22 11:19:46;;;;;;;24.23;13.13;;;;;;;21.00;45.11;101452.00;5071863;28;20458;-59
2022/05/22 11:22:43;;;;;;;22.40;13.27;;;;;;;20.87;47.04;101446.47;5070454;28;20016;-59
2022/05/22 11:25:28;;;;;;;21.60;12.98;;;;;;;21.26;45.37;101440.16;5072043;28;20025;-60
2022/05/22 11:28:06;;;;;;;23.30;14.52;;;;;;;21.52;45.94;101435.97;5064146;28;20047;-59
2022/05/22 11:30:36;;;;;;;24.10;13.18;;;;;;;21.70;44.56;101418.69;5071990;28;20032;-59
2022/05/22 11:33:24;;;;;;;22.85;14.13;;;;;;;21.90;44.39;101423.13;5072305;28;20040;-58
2022/05/22 11:36:08;;;;;;;21.45;13.52;;;;;;;21.93;43.26;101424.38;5072339;28;20058;-59
2022/05/22 11:38:50;;;;;;;24.05;13.73;;;;;;;21.99;43.34;101416.47;5072102;28;20036;-58
2022/05/22 11:41:28;;;;;;;22.17;13.07;;;;;;;22.05;43.44;101415.78;5072005;28;20448;-58